Sumifukumaru No.5 — JD3058 — position and weather

sailwx.info

Track history (hours):
 
Tides and Currents Weather Stations Pressure Air Temp Water Temp Dewpoint Dewpoint Depression Visibility Wind Speed Wind Dir Waves Ship Positions

Sumifukumaru No.5

Last reported at 2016-May-24 04:31 UTC. Time now 2016-May-24 06:05 UTC.
Position N 34°15' E 135°06'.

Length 75 m; draft 4.4 m.

Type: Cargo ship. MMSI: 431001371.

Date/timePositionNaut miles runAvg speedWind from/ knotsBaromVisibWave heightAir tempDewpointWater temp
2016-May-24 04:31N 34°15' E 135°06'0 0.0
2016-May-24 03:31N 34°15' E 135°06'0 0.0
2016-May-24 02:31N 34°15' E 135°06'1 0.6
2016-May-24 01:33N 34°15' E 135°07'13 0.3
2016-May-22 09:33N 34°02' E 135°01'1111.2
2016-May-22 08:33N 34°13' E 135°02'10 9.9
2016-May-22 07:33N 34°22' E 135°07'1111.3
2016-May-22 06:34N 34°30' E 135°16'9 9.3
2016-May-22 05:34N 34°35' E 135°26'2 0.7
2016-May-22 03:21N 34°34' E 135°27'0 0.0
2016-May-21 20:33N 34°34' E 135°27'0 0.0
2016-May-21 19:30N 34°34' E 135°27'0 0.0
2016-May-21 18:31N 34°34' E 135°27'0 0.0
2016-May-21 15:18N 34°34' E 135°27'0 0.0
2016-May-21 13:28N 34°34' E 135°27'0 0.2
2016-May-21 11:33N 34°34' E 135°27'0 0.0
2016-May-21 10:33N 34°34' E 135°27'0 0.0
2016-May-21 07:21N 34°35' E 135°27'4 5.7
2016-May-21 06:33N 34°39' E 135°26'2 0.3
2016-May-21 00:25N 34°39' E 135°28'0 0.0
2016-May-20 05:25N 34°39' E 135°28'0 0.0
2016-May-20 04:30N 34°39' E 135°28'0 0.0
2016-May-20 03:12N 34°39' E 135°28'0 0.0
2016-May-20 01:31N 34°39' E 135°28'0 0.0
2016-May-19 06:06N 34°39' E 135°28'4 7.5
2016-May-19 05:33N 34°38' E 135°23'7 6.7
2016-May-19 04:29N 34°31' E 135°25'0 0.0
2016-May-19 03:32N 34°31' E 135°25'0 0.0
2016-May-19 02:32N 34°31' E 135°25'0 0.1
2016-May-19 01:34N 34°31' E 135°24'9 8.6
2016-May-19 00:33N 34°29' E 135°14'1411.0
2016-May-18 23:19N 34°18' E 135°04'221 8.8
2016-May-17 22:20N 34°59' E 139°28'911.2
2016-May-17 21:34N 35°05' E 139°36'1211.7
2016-May-17 20:33N 35°13' E 139°46'1111.4
2016-May-17 19:34N 35°24' E 139°43'6 5.5
2016-May-17 18:27N 35°24' E 139°50'0 0.0
2016-May-17 17:33N 35°24' E 139°50'0 0.0
2016-May-17 16:33N 35°24' E 139°50'0 0.0
2016-May-17 15:33N 35°24' E 139°50'0 0.0
2016-May-17 14:33N 35°24' E 139°50'0 0.0
2016-May-17 13:33N 35°24' E 139°50'0 0.0
2016-May-17 12:33N 35°24' E 139°50'0 0.0
2016-May-17 11:33N 35°24' E 139°50'0 0.0
2016-May-17 10:33N 35°24' E 139°50'0 0.0
2016-May-17 09:32N 35°24' E 139°50'0 0.0
2016-May-17 08:32N 35°24' E 139°51'0 0.0
2016-May-17 07:33N 35°24' E 139°51'0 0.1
2016-May-17 06:32N 35°24' E 139°51'0 0.1
2016-May-17 05:27N 35°24' E 139°51'0 0.0
2016-May-17 04:33N 35°24' E 139°51'0 0.0
2016-May-17 03:33N 35°24' E 139°51'0 0.0
2016-May-17 02:27N 35°24' E 139°51'0 0.0
2016-May-17 01:32N 35°24' E 139°51'0 0.0
2016-May-17 00:32N 35°24' E 139°51'0 0.0
2016-May-16 23:33N 35°24' E 139°51'0 0.0
2016-May-16 22:32N 35°24' E 139°51'0 0.1
2016-May-16 21:33N 35°24' E 139°50'0 0.0
2016-May-16 20:34N 35°24' E 139°50'1 0.6
2016-May-16 19:33N 35°23' E 139°51'3 2.7
2016-May-16 18:34N 35°22' E 139°53'0 0.0
2016-May-16 17:31N 35°22' E 139°53'0 0.0
2016-May-16 16:25N 35°22' E 139°53'0 0.0
2016-May-16 15:31N 35°22' E 139°53'0 0.0
2016-May-16 14:28N 35°22' E 139°53'0 0.0
2016-May-16 13:28N 35°22' E 139°53'0 0.0
2016-May-16 12:31N 35°22' E 139°53'0 0.0
2016-May-16 11:31N 35°22' E 139°53'0 0.0
2016-May-16 09:25N 35°22' E 139°53'0 0.0
2016-May-16 08:25N 35°22' E 139°53'0 0.0
2016-May-16 07:28N 35°22' E 139°53'0 0.0
2016-May-16 06:13N 35°22' E 139°53'0 0.0
2016-May-16 05:31N 35°22' E 139°53'0 0.0
2016-May-16 04:31N 35°22' E 139°53'0 0.0
2016-May-16 03:31N 35°22' E 139°53'0 0.0
2016-May-16 02:28N 35°22' E 139°53'0 0.0
2016-May-16 01:28N 35°22' E 139°53'0 0.0
2016-May-16 00:31N 35°22' E 139°53'0 0.0
2016-May-15 23:31N 35°22' E 139°53'0 0.0
2016-May-15 22:31N 35°22' E 139°53'0 0.0
2016-May-15 21:13N 35°22' E 139°53'0 0.0
2016-May-15 20:28N 35°22' E 139°53'0 0.0
2016-May-15 19:19N 35°22' E 139°53'0 0.0
2016-May-15 18:28N 35°22' E 139°53'0 0.0
2016-May-15 17:31N 35°22' E 139°53'0 0.0
2016-May-15 16:31N 35°22' E 139°53'0 0.0
2016-May-15 15:31N 35°22' E 139°53'0 0.0
2016-May-15 14:31N 35°22' E 139°53'0 0.0
2016-May-15 13:22N 35°22' E 139°53'0 0.0
2016-May-15 12:31N 35°22' E 139°53'0 0.0
2016-May-15 11:31N 35°22' E 139°53'0 0.0
2016-May-15 10:22N 35°22' E 139°53'0 0.0
2016-May-15 09:19N 35°22' E 139°53'0 0.0
2016-May-15 08:28N 35°22' E 139°53'0 0.0
2016-May-15 07:25N 35°22' E 139°53'0 0.0
2016-May-15 06:31N 35°22' E 139°53'0 0.0
2016-May-15 05:31N 35°22' E 139°53'0 0.0
2016-May-15 04:31N 35°22' E 139°53'0 0.0
2016-May-15 03:30N 35°22' E 139°53'0 0.3
2016-May-15 02:22N 35°22' E 139°53'0 0.0
2016-May-15 01:31N 35°22' E 139°53'0 0.0
2016-May-15 00:25N 35°22' E 139°53'0 0.0
2016-May-14 23:28N 35°22' E 139°53'0 0.0
2016-May-14 22:31N 35°22' E 139°53'0 0.0
2016-May-14 21:34N 35°22' E 139°53'0 0.0
2016-May-14 20:31N 35°22' E 139°53'1 0.6
2016-May-14 19:33N 35°22' E 139°54'0 0.0
2016-May-14 18:33N 35°22' E 139°54'0 0.0
2016-May-14 17:33N 35°22' E 139°54'0 0.0
2016-May-14 16:30N 35°22' E 139°54'0 0.0
2016-May-14 15:30N 35°22' E 139°54'0 0.0
2016-May-14 14:33N 35°22' E 139°54'0 0.0
2016-May-14 13:27N 35°22' E 139°54'0 0.0
2016-May-14 12:33N 35°22' E 139°54'0 0.0
2016-May-14 11:33N 35°22' E 139°54'0 0.0
2016-May-14 10:21N 35°22' E 139°54'0 0.0
2016-May-14 09:33N 35°22' E 139°54'8 8.3
2016-May-14 08:33N 35°30' E 139°51'1111.2
2016-May-14 07:33N 35°40' E 139°57'2 1.4
2016-May-14 06:26N 35°41' E 139°57'0 0.0
2016-May-14 05:32N 35°41' E 139°57'  
Track history (hours):
 
Tides and Currents Weather Stations Pressure Air Temp Water Temp Dewpoint Dewpoint Depression Visibility Wind Speed Wind Dir Waves Ship Positions

Sumifukumaru No.5

Last reported at 2016-May-24 04:31 UTC. Time now 2016-May-24 06:05 UTC.
Position N 34°15' E 135°06'.

Length 75 m; draft 4.4 m.

Type: Cargo ship. MMSI: 431001371.

Date/timePositionNaut miles runAvg speedWind from/ knotsBaromVisibWave heightAir tempDewpointWater temp
2016-May-24 04:31N 34°15' E 135°06'0 0.0
2016-May-24 03:31N 34°15' E 135°06'0 0.0
2016-May-24 02:31N 34°15' E 135°06'1 0.6
2016-May-24 01:33N 34°15' E 135°07'13 0.3
2016-May-22 09:33N 34°02' E 135°01'1111.2
2016-May-22 08:33N 34°13' E 135°02'10 9.9
2016-May-22 07:33N 34°22' E 135°07'1111.3
2016-May-22 06:34N 34°30' E 135°16'9 9.3
2016-May-22 05:34N 34°35' E 135°26'2 0.7
2016-May-22 03:21N 34°34' E 135°27'0 0.0
2016-May-21 20:33N 34°34' E 135°27'0 0.0
2016-May-21 19:30N 34°34' E 135°27'0 0.0
2016-May-21 18:31N 34°34' E 135°27'0 0.0
2016-May-21 15:18N 34°34' E 135°27'0 0.0
2016-May-21 13:28N 34°34' E 135°27'0 0.2
2016-May-21 11:33N 34°34' E 135°27'0 0.0
2016-May-21 10:33N 34°34' E 135°27'0 0.0
2016-May-21 07:21N 34°35' E 135°27'4 5.7
2016-May-21 06:33N 34°39' E 135°26'2 0.3
2016-May-21 00:25N 34°39' E 135°28'0 0.0
2016-May-20 05:25N 34°39' E 135°28'0 0.0
2016-May-20 04:30N 34°39' E 135°28'0 0.0
2016-May-20 03:12N 34°39' E 135°28'0 0.0
2016-May-20 01:31N 34°39' E 135°28'0 0.0
2016-May-19 06:06N 34°39' E 135°28'4 7.5
2016-May-19 05:33N 34°38' E 135°23'7 6.7
2016-May-19 04:29N 34°31' E 135°25'0 0.0
2016-May-19 03:32N 34°31' E 135°25'0 0.0
2016-May-19 02:32N 34°31' E 135°25'0 0.1
2016-May-19 01:34N 34°31' E 135°24'9 8.6
2016-May-19 00:33N 34°29' E 135°14'1411.0
2016-May-18 23:19N 34°18' E 135°04'221 8.8
2016-May-17 22:20N 34°59' E 139°28'911.2
2016-May-17 21:34N 35°05' E 139°36'1211.7
2016-May-17 20:33N 35°13' E 139°46'1111.4
2016-May-17 19:34N 35°24' E 139°43'6 5.5
2016-May-17 18:27N 35°24' E 139°50'0 0.0
2016-May-17 17:33N 35°24' E 139°50'0 0.0
2016-May-17 16:33N 35°24' E 139°50'0 0.0
2016-May-17 15:33N 35°24' E 139°50'0 0.0
2016-May-17 14:33N 35°24' E 139°50'0 0.0
2016-May-17 13:33N 35°24' E 139°50'0 0.0
2016-May-17 12:33N 35°24' E 139°50'0 0.0
2016-May-17 11:33N 35°24' E 139°50'0 0.0
2016-May-17 10:33N 35°24' E 139°50'0 0.0
2016-May-17 09:32N 35°24' E 139°50'0 0.0
2016-May-17 08:32N 35°24' E 139°51'0 0.0
2016-May-17 07:33N 35°24' E 139°51'0 0.1
2016-May-17 06:32N 35°24' E 139°51'0 0.1
2016-May-17 05:27N 35°24' E 139°51'0 0.0
2016-May-17 04:33N 35°24' E 139°51'0 0.0
2016-May-17 03:33N 35°24' E 139°51'0 0.0
2016-May-17 02:27N 35°24' E 139°51'0 0.0
2016-May-17 01:32N 35°24' E 139°51'0 0.0
2016-May-17 00:32N 35°24' E 139°51'0 0.0
2016-May-16 23:33N 35°24' E 139°51'0 0.0
2016-May-16 22:32N 35°24' E 139°51'0 0.1
2016-May-16 21:33N 35°24' E 139°50'0 0.0
2016-May-16 20:34N 35°24' E 139°50'1 0.6
2016-May-16 19:33N 35°23' E 139°51'3 2.7
2016-May-16 18:34N 35°22' E 139°53'0 0.0
2016-May-16 17:31N 35°22' E 139°53'0 0.0
2016-May-16 16:25N 35°22' E 139°53'0 0.0
2016-May-16 15:31N 35°22' E 139°53'0 0.0
2016-May-16 14:28N 35°22' E 139°53'0 0.0
2016-May-16 13:28N 35°22' E 139°53'0 0.0
2016-May-16 12:31N 35°22' E 139°53'0 0.0
2016-May-16 11:31N 35°22' E 139°53'0 0.0
2016-May-16 09:25N 35°22' E 139°53'0 0.0
2016-May-16 08:25N 35°22' E 139°53'0 0.0
2016-May-16 07:28N 35°22' E 139°53'0 0.0
2016-May-16 06:13N 35°22' E 139°53'0 0.0
2016-May-16 05:31N 35°22' E 139°53'0 0.0
2016-May-16 04:31N 35°22' E 139°53'0 0.0
2016-May-16 03:31N 35°22' E 139°53'0 0.0
2016-May-16 02:28N 35°22' E 139°53'0 0.0
2016-May-16 01:28N 35°22' E 139°53'0 0.0
2016-May-16 00:31N 35°22' E 139°53'0 0.0
2016-May-15 23:31N 35°22' E 139°53'0 0.0
2016-May-15 22:31N 35°22' E 139°53'0 0.0
2016-May-15 21:13N 35°22' E 139°53'0 0.0
2016-May-15 20:28N 35°22' E 139°53'0 0.0
2016-May-15 19:19N 35°22' E 139°53'0 0.0
2016-May-15 18:28N 35°22' E 139°53'0 0.0
2016-May-15 17:31N 35°22' E 139°53'0 0.0
2016-May-15 16:31N 35°22' E 139°53'0 0.0
2016-May-15 15:31N 35°22' E 139°53'0 0.0
2016-May-15 14:31N 35°22' E 139°53'0 0.0
2016-May-15 13:22N 35°22' E 139°53'0 0.0
2016-May-15 12:31N 35°22' E 139°53'0 0.0
2016-May-15 11:31N 35°22' E 139°53'0 0.0
2016-May-15 10:22N 35°22' E 139°53'0 0.0
2016-May-15 09:19N 35°22' E 139°53'0 0.0
2016-May-15 08:28N 35°22' E 139°53'0 0.0
2016-May-15 07:25N 35°22' E 139°53'0 0.0
2016-May-15 06:31N 35°22' E 139°53'0 0.0
2016-May-15 05:31N 35°22' E 139°53'0 0.0
2016-May-15 04:31N 35°22' E 139°53'0 0.0
2016-May-15 03:30N 35°22' E 139°53'0 0.3
2016-May-15 02:22N 35°22' E 139°53'0 0.0
2016-May-15 01:31N 35°22' E 139°53'0 0.0
2016-May-15 00:25N 35°22' E 139°53'0 0.0
2016-May-14 23:28N 35°22' E 139°53'0 0.0
2016-May-14 22:31N 35°22' E 139°53'0 0.0
2016-May-14 21:34N 35°22' E 139°53'0 0.0
2016-May-14 20:31N 35°22' E 139°53'1 0.6
2016-May-14 19:33N 35°22' E 139°54'0 0.0
2016-May-14 18:33N 35°22' E 139°54'0 0.0
2016-May-14 17:33N 35°22' E 139°54'0 0.0
2016-May-14 16:30N 35°22' E 139°54'0 0.0
2016-May-14 15:30N 35°22' E 139°54'0 0.0
2016-May-14 14:33N 35°22' E 139°54'0 0.0
2016-May-14 13:27N 35°22' E 139°54'0 0.0
2016-May-14 12:33N 35°22' E 139°54'0 0.0
2016-May-14 11:33N 35°22' E 139°54'0 0.0
2016-May-14 10:21N 35°22' E 139°54'0 0.0
2016-May-14 09:33N 35°22' E 139°54'8 8.3
2016-May-14 08:33N 35°30' E 139°51'1111.2
2016-May-14 07:33N 35°40' E 139°57'2 1.4
2016-May-14 06:26N 35°41' E 139°57'0 0.0
2016-May-14 05:32N 35°41' E 139°57'  

Dump ship's entire track history